Preferential Configurations

The Heavy Weather award is actually suspended in IVAO.
FIR Madrid
Airport Wind Current Metar Suggested configuration Heavy Weather
LEBB 030/04 LEBB 201730Z 03004KT 360V060 9999 FEW030 13/09 Q1028 NOSIG Departures: 30/
Arrivals: 30/
No conditions
LEBG 060/11 LEBG 201730Z 06011KT CAVOK 09/03 Q1025 Departures: 04/
Arrivals: 04/
No conditions
LECU 0/0 Departures: 27/
Arrivals: 27/
No conditions
LEGT 020/04 LEGT 201700Z 02004KT CAVOK 14/M01 Q1023 Departures: 23/
Arrivals: 23/
No conditions
LEHC 240/04 LEHC 201730Z AUTO 24004KT 9999 NCD 11/03 Q1024 Departures: 12R/
Arrivals: 12R/
No conditions
LEMD 350/03 LEMD 201730Z 35003KT CAVOK 13/01 Q1023 NOSIG Departures: 36L/36R/
Arrivals: 32L/32R/
No conditions
LEPP 320/12 LEPP 201730Z 32012KT CAVOK 10/04 Q1026 Departures: 33/
Arrivals: 33/
No conditions
LERJ 0/0 Departures: 29/
Arrivals: 29/
No conditions
LESA 070/06 LESA 201730Z 07006KT CAVOK 12/02 Q1023 Departures: 21/
Arrivals: 21/
No conditions
LESO 000/00 LESO 201730Z 00000KT 9999 SCT040 12/09 Q1028 Departures: 22/
Arrivals: 22/
No conditions
LETO VRB/02 LETO 201700Z VRB02KT CAVOK 15/02 Q1023 NOSIG Departures: 22/
Arrivals: 22/
No conditions
LEVD 070/10 LEVD 201730Z 07010KT CAVOK 11/00 Q1024 Departures: 23/
Arrivals: 23/
No conditions
LEVT 010/08 LEVT 201730Z 01008KT 9999 FEW025 10/05 Q1026 Departures: 04/
Arrivals: 04/
No conditions
LEXJ VRB/02 LEXJ 201730Z VRB02KT 9999 SCT050 12/08 Q1028 Departures: 29/
Arrivals: 29/
No conditions
LEZG 270/07 LEZG 201730Z 27007KT CAVOK 13/06 Q1025 Departures: 30R/
Arrivals: 30R/
No conditions
FIR Barcelona
Airport Wind Current Metar Suggested configuration Heavy Weather
LEBL 240/06 LEBL 201730Z 24006KT CAVOK 14/08 Q1024 NOSIG Departures: 25R/25L/
Arrivals: 25R/
No conditions
LEDA 0/0 Departures: 31/
Arrivals: 31/
No conditions
LEGE 210/03 LEGE 201730Z 21003KT CAVOK 12/06 Q1024 Departures: 20/
Arrivals: 20/
No conditions
LELL 250/03 LELL 201730Z AUTO 25003KT 9999 NCD 14/06 Q1024 Departures: 31/
Arrivals: 31/
No conditions
LERS 210/07 LERS 201730Z 21007KT 170V230 9999 FEW025 14/08 Q1024 Departures: 25/
Arrivals: 25/
No conditions
LESU 240/08 LESU 201700Z 24008KT CAVOK 12/M00 Q1023 Departures: 03/
Arrivals: 03/
No conditions
FIR Canarias
Airport Wind Current Metar Suggested configuration Heavy Weather
GCFV 020/19 GCFV 201730Z 02019KT 9999 SCT035TCU 19/11 Q1015 Departures: 01R/
Arrivals: 01R/
No conditions
GCGM VRB/10 GCGM 201730Z VRB10KT 9999 FEW025 19/08 Q1017 RMK R09/VRB08G20KT ARP/VRB08KT Departures: 09/
Arrivals: 09/
No conditions
GCHI 020/14 GCHI 201730Z 02014KT 340V050 9999 FEW029 19/12 Q1018 NOSIG Departures: 34/
Arrivals: 34/
No conditions
GCLA 020/15 GCLA 201730Z 02015KT 350V050 9999 FEW035 19/12 Q1019 Departures: 01/
Arrivals: 01/
No conditions
GCLP 360/29 GCLP 201730Z 36016G29KT 320V040 9999 FEW025 BKN035 20/11 Q1017 NOSIG Departures: 03L/03R/
Arrivals: 03L/
No conditions
GCRR 350/20 GCRR 201730Z 35020KT 320V020 9999 FEW030 19/12 Q1015 Departures: 03/
Arrivals: 03/
No conditions
GCTS 270/08 GCTS 201730Z 27008KT 240V320 9999 FEW043 SCT047 20/10 Q1017 NOSIG Departures: 08/
Arrivals: 08/
No conditions
GCXO 320/14 GCXO 201730Z 32014KT 290V350 9999 FEW005 BKN008 12/11 Q1018 NOSIG Departures: 30/
Arrivals: 30/
No conditions
ACC Sevilla
Airport Wind Current Metar Suggested configuration Heavy Weather
GEML 060/25 GEML 201730Z 06014G25KT 020V090 8000 FEW008 BKN012 OVC014 15/13 Q1016 WS ALL RWY Departures: 15/
Arrivals: 15/
No conditions
LEAB 100/11 LEAB 201700Z 10011KT 9999 FEW025 11/02 Q1023 NOSIG Departures: 09/
Arrivals: 09/
No conditions
LEAM 060/18 LEAM 201730Z 06018KT 9999 BKN040 15/08 Q1020 Departures: 07/
Arrivals: 07/
No conditions
LEBZ 070/11 LEBZ 201700Z 07011KT CAVOK 18/02 Q1019 Departures: 31/
Arrivals: 31/
No conditions
LEGA VRB/02 LEGA 201700Z VRB02KT CAVOK 15/07 Q1017 Departures: 36/
Arrivals: 36/
No conditions
LEGR 030/23 LEGR 201730Z 03013G23KT 360V060 9999 FEW070 12/06 Q1017 Departures: 09/
Arrivals: 09/
No conditions
LEJR VRB/02 LEJR 201730Z VRB02KT 9000 FEW030 SCT040 BKN050 16/10 Q1017 Departures: 20/
Arrivals: 20/
No conditions
LEMG 110/10 LEMG 201730Z 11010KT 7000 FEW030 15/11 Q1018 NOSIG Departures: 13/
Arrivals: 13/12/
No conditions
LEMO 060/10 LEMO 201700Z 06010KT CAVOK 16/07 Q1017 NOSIG Departures: 20/
Arrivals: 20/
No conditions
LERL 0/0 Departures:
Arrivals:
No conditions
LERT 050/04 LERT 201700Z 05004KT 9999 SCT040 15/10 Q1017 NOSIG Departures: 10/
Arrivals: 10/
No conditions
LEZL 060/09 LEZL 201730Z 06009KT CAVOK 16/07 Q1018 NOSIG Departures: 27/
Arrivals: 27/
No conditions
ACC Palma
Airport Wind Current Metar Suggested configuration Heavy Weather
LEIB 050/10 LEIB 201730Z 05010KT 9999 FEW025 13/09 Q1024 NOSIG Departures: 24/
Arrivals: 24/
No conditions
LEMH VRB/02 LEMH 201730Z VRB02KT 9999 FEW023 11/08 Q1024 Departures: 01/
Arrivals: 01/
No conditions
LEPA 240/03 LEPA 201730Z 24003KT 9999 FEW028 13/10 Q1024 NOSIG Departures: 24R/
Arrivals: 24L/
No conditions
ACC Galicia
Airport Wind Current Metar Suggested configuration Heavy Weather
LEAS 000/00 LEAS 201730Z 00000KT 9999 FEW013 SCT045 11/09 Q1028 NOSIG Departures: 29/
Arrivals: 29/
No conditions
LECO 360/06 LECO 201730Z 36006KT 320V050 9999 FEW028 14/11 Q1026 NOSIG Departures: 03/
Arrivals: 21/
No conditions
LELN VRB/01 LELN 201700Z VRB01KT CAVOK 13/02 Q1024 Departures: 23/
Arrivals: 23/
No conditions
LEST 030/13 LEST 201730Z 03013KT 350V050 CAVOK 14/11 Q1025 NOSIG Departures: 35/
Arrivals: 35/
No conditions
LEVX 000/00 LEVX 201730Z 00000KT CAVOK 18/09 Q1023 NOSIG Departures: 20/
Arrivals: 20/
No conditions
ACC Levante
Airport Wind Current Metar Suggested configuration Heavy Weather
LEAL 070/16 LEAL 201730Z 07016KT 9999 FEW025 14/07 Q1023 NOSIG Departures: 10/
Arrivals: 10/
No conditions
LECH 180/05 LECH 201730Z 18005KT CAVOK 13/01 Q1024 Departures: 06/
Arrivals: 06/
No conditions
LELC 070/16 LELC 201700Z 07016KT 360V080 9999 BKN018 14/11 Q1022 NOSIG Departures: 05R/
Arrivals: 05R/
No conditions
LEVC 090/04 LEVC 201730Z 09004KT 9999 FEW025 14/02 Q1025 NOSIG Departures: 30/
Arrivals: 30/
No conditions